sensor_id;sensor_type;location;lat;lon;timestamp;temperature;humidity
21061;DHT22;10689;50.836;3.266;2023-03-26T00:02:46;11.20;99.90
21061;DHT22;10689;50.836;3.266;2023-03-26T00:05:16;11.10;99.90
21061;DHT22;10689;50.836;3.266;2023-03-26T00:07:45;11.10;99.90
21061;DHT22;10689;50.836;3.266;2023-03-26T00:13:19;11.00;99.90
21061;DHT22;10689;50.836;3.266;2023-03-26T00:15:45;11.00;99.90
21061;DHT22;10689;50.836;3.266;2023-03-26T00:22:11;10.90;99.90
21061;DHT22;10689;50.836;3.266;2023-03-26T00:25:29;11.00;99.90
21061;DHT22;10689;50.836;3.266;2023-03-26T00:28:25;10.90;99.90
21061;DHT22;10689;50.836;3.266;2023-03-26T00:34:04;10.80;99.90
21061;DHT22;10689;50.836;3.266;2023-03-26T00:37:07;10.80;99.90
21061;DHT22;10689;50.836;3.266;2023-03-26T00:40:13;10.70;99.90
21061;DHT22;10689;50.836;3.266;2023-03-26T00:43:13;10.80;99.90
21061;DHT22;10689;50.836;3.266;2023-03-26T00:45:55;10.80;99.90
21061;DHT22;10689;50.836;3.266;2023-03-26T00:48:24;10.80;99.90
21061;DHT22;10689;50.836;3.266;2023-03-26T00:51:15;10.70;99.90
21061;DHT22;10689;50.836;3.266;2023-03-26T01:00:30;11.00;99.90
21061;DHT22;10689;50.836;3.266;2023-03-26T01:03:05;11.00;99.90
21061;DHT22;10689;50.836;3.266;2023-03-26T01:05:46;10.90;99.90
21061;DHT22;10689;50.836;3.266;2023-03-26T01:08:38;10.90;99.90
21061;DHT22;10689;50.836;3.266;2023-03-26T01:11:44;10.90;99.90
21061;DHT22;10689;50.836;3.266;2023-03-26T01:14:26;10.90;99.90
21061;DHT22;10689;50.836;3.266;2023-03-26T01:17:02;10.80;99.90
21061;DHT22;10689;50.836;3.266;2023-03-26T01:25:36;10.80;99.90
21061;DHT22;10689;50.836;3.266;2023-03-26T01:28:25;10.80;99.90
21061;DHT22;10689;50.836;3.266;2023-03-26T01:49:04;10.60;99.90
21061;DHT22;10689;50.836;3.266;2023-03-26T01:51:40;10.40;99.90
21061;DHT22;10689;50.836;3.266;2023-03-26T01:54:45;10.50;99.90
21061;DHT22;10689;50.836;3.266;2023-03-26T02:03:15;10.40;99.90
21061;DHT22;10689;50.836;3.266;2023-03-26T02:09:09;10.50;99.90
21061;DHT22;10689;50.836;3.266;2023-03-26T02:11:43;10.50;99.90
21061;DHT22;10689;50.836;3.266;2023-03-26T02:14:30;10.40;99.90
21061;DHT22;10689;50.836;3.266;2023-03-26T02:19:56;10.50;99.90
21061;DHT22;10689;50.836;3.266;2023-03-26T02:23:03;10.60;99.90
21061;DHT22;10689;50.836;3.266;2023-03-26T02:25:39;10.50;99.90
21061;DHT22;10689;50.836;3.266;2023-03-26T02:31:06;10.50;99.90
21061;DHT22;10689;50.836;3.266;2023-03-26T02:33:46;10.50;99.90
21061;DHT22;10689;50.836;3.266;2023-03-26T02:36:18;10.50;99.90
21061;DHT22;10689;50.836;3.266;2023-03-26T02:39:06;10.50;99.90
21061;DHT22;10689;50.836;3.266;2023-03-26T02:41:59;10.50;99.90
21061;DHT22;10689;50.836;3.266;2023-03-26T02:44:31;10.40;99.90
21061;DHT22;10689;50.836;3.266;2023-03-26T02:47:03;10.40;99.90
21061;DHT22;10689;50.836;3.266;2023-03-26T02:49:38;10.50;99.90
21061;DHT22;10689;50.836;3.266;2023-03-26T02:52:08;10.50;99.90
21061;DHT22;10689;50.836;3.266;2023-03-26T02:54:58;10.60;99.90
21061;DHT22;10689;50.836;3.266;2023-03-26T02:57:33;10.50;99.90
21061;DHT22;10689;50.836;3.266;2023-03-26T03:00:25;10.50;99.90
21061;DHT22;10689;50.836;3.266;2023-03-26T03:03:06;10.50;99.90
21061;DHT22;10689;50.836;3.266;2023-03-26T03:05:39;10.50;99.90
21061;DHT22;10689;50.836;3.266;2023-03-26T03:08:22;10.60;99.90
21061;DHT22;10689;50.836;3.266;2023-03-26T03:13:54;10.60;99.90
21061;DHT22;10689;50.836;3.266;2023-03-26T03:16:20;10.50;99.90
21061;DHT22;10689;50.836;3.266;2023-03-26T03:18:47;10.50;99.90
21061;DHT22;10689;50.836;3.266;2023-03-26T03:21:35;10.50;99.90
21061;DHT22;10689;50.836;3.266;2023-03-26T03:24:20;10.50;99.90
21061;DHT22;10689;50.836;3.266;2023-03-26T03:26:53;10.50;99.90
21061;DHT22;10689;50.836;3.266;2023-03-26T03:29:27;10.60;99.90
21061;DHT22;10689;50.836;3.266;2023-03-26T03:31:53;10.60;99.90
21061;DHT22;10689;50.836;3.266;2023-03-26T03:34:26;10.70;99.90
21061;DHT22;10689;50.836;3.266;2023-03-26T03:39:48;10.70;99.90
21061;DHT22;10689;50.836;3.266;2023-03-26T03:42:17;10.60;99.90
21061;DHT22;10689;50.836;3.266;2023-03-26T03:44:46;10.60;99.90
21061;DHT22;10689;50.836;3.266;2023-03-26T03:47:29;10.60;99.90
21061;DHT22;10689;50.836;3.266;2023-03-26T03:50:13;10.40;99.90
21061;DHT22;10689;50.836;3.266;2023-03-26T03:52:41;10.40;99.90
21061;DHT22;10689;50.836;3.266;2023-03-26T03:55:10;10.50;99.90
21061;DHT22;10689;50.836;3.266;2023-03-26T04:00:12;10.50;99.90
21061;DHT22;10689;50.836;3.266;2023-03-26T04:02:51;10.50;99.90
21061;DHT22;10689;50.836;3.266;2023-03-26T04:05:52;10.50;99.90
21061;DHT22;10689;50.836;3.266;2023-03-26T04:08:23;10.50;99.90
21061;DHT22;10689;50.836;3.266;2023-03-26T04:11:01;10.60;99.90
21061;DHT22;10689;50.836;3.266;2023-03-26T04:13:33;10.50;99.90
21061;DHT22;10689;50.836;3.266;2023-03-26T04:16:15;10.50;99.90
21061;DHT22;10689;50.836;3.266;2023-03-26T04:18:50;10.50;99.90
21061;DHT22;10689;50.836;3.266;2023-03-26T04:21:22;10.50;99.90
21061;DHT22;10689;50.836;3.266;2023-03-26T04:24:02;10.50;99.90
21061;DHT22;10689;50.836;3.266;2023-03-26T04:26:39;10.40;99.90
21061;DHT22;10689;50.836;3.266;2023-03-26T04:29:10;10.30;99.90
21061;DHT22;10689;50.836;3.266;2023-03-26T04:31:52;10.30;99.90
21061;DHT22;10689;50.836;3.266;2023-03-26T04:34:42;10.30;99.90
21061;DHT22;10689;50.836;3.266;2023-03-26T04:37:34;10.40;99.90
21061;DHT22;10689;50.836;3.266;2023-03-26T04:40:14;10.40;99.90
21061;DHT22;10689;50.836;3.266;2023-03-26T04:46:25;10.40;99.90
21061;DHT22;10689;50.836;3.266;2023-03-26T04:49:06;10.30;99.90
21061;DHT22;10689;50.836;3.266;2023-03-26T04:51:35;10.40;99.90
21061;DHT22;10689;50.836;3.266;2023-03-26T04:54:19;10.40;99.90
21061;DHT22;10689;50.836;3.266;2023-03-26T04:59:58;10.40;99.90
21061;DHT22;10689;50.836;3.266;2023-03-26T05:02:44;10.40;99.90
21061;DHT22;10689;50.836;3.266;2023-03-26T05:05:26;10.30;99.90
21061;DHT22;10689;50.836;3.266;2023-03-26T05:08:23;10.40;99.90
21061;DHT22;10689;50.836;3.266;2023-03-26T05:10:52;10.30;99.90
21061;DHT22;10689;50.836;3.266;2023-03-26T05:16:28;10.00;99.90
21061;DHT22;10689;50.836;3.266;2023-03-26T05:19:09;9.90;99.90
21061;DHT22;10689;50.836;3.266;2023-03-26T05:21:41;9.80;99.90
21061;DHT22;10689;50.836;3.266;2023-03-26T05:24:13;9.90;99.90
21061;DHT22;10689;50.836;3.266;2023-03-26T05:26:47;9.80;99.90
21061;DHT22;10689;50.836;3.266;2023-03-26T05:29:14;9.80;99.90
21061;DHT22;10689;50.836;3.266;2023-03-26T05:31:43;9.80;99.90
21061;DHT22;10689;50.836;3.266;2023-03-26T05:34:20;9.90;99.90
21061;DHT22;10689;50.836;3.266;2023-03-26T05:36:53;9.90;99.90
21061;DHT22;10689;50.836;3.266;2023-03-26T05:39:19;9.60;99.90
21061;DHT22;10689;50.836;3.266;2023-03-26T05:41:52;9.50;99.90
21061;DHT22;10689;50.836;3.266;2023-03-26T05:44:39;9.40;99.90
21061;DHT22;10689;50.836;3.266;2023-03-26T05:47:17;9.30;99.90
21061;DHT22;10689;50.836;3.266;2023-03-26T05:49:44;9.20;99.90
21061;DHT22;10689;50.836;3.266;2023-03-26T05:52:14;9.10;99.90
21061;DHT22;10689;50.836;3.266;2023-03-26T05:54:46;9.20;99.90
21061;DHT22;10689;50.836;3.266;2023-03-26T05:57:11;9.20;99.90
21061;DHT22;10689;50.836;3.266;2023-03-26T05:59:49;9.20;99.90
21061;DHT22;10689;50.836;3.266;2023-03-26T06:05:38;9.10;99.90
21061;DHT22;10689;50.836;3.266;2023-03-26T06:08:14;8.90;99.90
21061;DHT22;10689;50.836;3.266;2023-03-26T06:11:16;9.00;99.90
21061;DHT22;10689;50.836;3.266;2023-03-26T06:13:41;8.90;99.90
21061;DHT22;10689;50.836;3.266;2023-03-26T06:16:11;8.90;99.90
21061;DHT22;10689;50.836;3.266;2023-03-26T06:18:41;8.70;99.90
21061;DHT22;10689;50.836;3.266;2023-03-26T06:21:07;8.70;99.90
21061;DHT22;10689;50.836;3.266;2023-03-26T06:23:36;8.50;99.90
21061;DHT22;10689;50.836;3.266;2023-03-26T06:26:11;8.50;99.90
21061;DHT22;10689;50.836;3.266;2023-03-26T06:29:24;8.50;99.90
21061;DHT22;10689;50.836;3.266;2023-03-26T06:32:27;8.60;99.90
21061;DHT22;10689;50.836;3.266;2023-03-26T06:35:32;8.60;99.90
21061;DHT22;10689;50.836;3.266;2023-03-26T06:38:07;8.60;99.90
21061;DHT22;10689;50.836;3.266;2023-03-26T06:40:42;8.60;99.90
21061;DHT22;10689;50.836;3.266;2023-03-26T06:43:15;8.50;99.90
21061;DHT22;10689;50.836;3.266;2023-03-26T06:45:52;8.50;99.90
21061;DHT22;10689;50.836;3.266;2023-03-26T06:48:26;8.60;99.90
21061;DHT22;10689;50.836;3.266;2023-03-26T06:50:52;8.60;99.90
21061;DHT22;10689;50.836;3.266;2023-03-26T06:53:23;8.60;99.90
21061;DHT22;10689;50.836;3.266;2023-03-26T06:55:55;8.60;99.90
21061;DHT22;10689;50.836;3.266;2023-03-26T06:58:22;8.50;99.90
21061;DHT22;10689;50.836;3.266;2023-03-26T07:00:52;8.40;99.90
21061;DHT22;10689;50.836;3.266;2023-03-26T07:03:27;8.50;99.90
21061;DHT22;10689;50.836;3.266;2023-03-26T07:05:54;8.50;99.90
21061;DHT22;10689;50.836;3.266;2023-03-26T07:08:20;8.60;99.90
21061;DHT22;10689;50.836;3.266;2023-03-26T07:10:46;8.60;99.90
21061;DHT22;10689;50.836;3.266;2023-03-26T07:13:12;8.60;99.90
21061;DHT22;10689;50.836;3.266;2023-03-26T07:15:40;8.60;99.90
21061;DHT22;10689;50.836;3.266;2023-03-26T07:18:06;8.60;99.90
21061;DHT22;10689;50.836;3.266;2023-03-26T07:20:32;8.60;99.90
21061;DHT22;10689;50.836;3.266;2023-03-26T07:23:00;8.60;99.90
21061;DHT22;10689;50.836;3.266;2023-03-26T07:25:27;8.50;99.90
21061;DHT22;10689;50.836;3.266;2023-03-26T07:30:45;8.40;99.90
21061;DHT22;10689;50.836;3.266;2023-03-26T07:33:29;8.40;99.90
21061;DHT22;10689;50.836;3.266;2023-03-26T07:45:02;8.40;99.90
21061;DHT22;10689;50.836;3.266;2023-03-26T07:47:36;8.40;99.90
21061;DHT22;10689;50.836;3.266;2023-03-26T07:50:03;8.40;99.90
21061;DHT22;10689;50.836;3.266;2023-03-26T07:52:29;8.40;99.90
21061;DHT22;10689;50.836;3.266;2023-03-26T07:54:56;8.30;99.90
21061;DHT22;10689;50.836;3.266;2023-03-26T08:08:46;8.30;99.90
21061;DHT22;10689;50.836;3.266;2023-03-26T08:11:28;8.30;99.90
21061;DHT22;10689;50.836;3.266;2023-03-26T08:14:02;8.30;99.90
21061;DHT22;10689;50.836;3.266;2023-03-26T08:21:54;8.50;99.90
21061;DHT22;10689;50.836;3.266;2023-03-26T08:24:42;8.50;99.90
21061;DHT22;10689;50.836;3.266;2023-03-26T08:27:36;8.50;99.90
21061;DHT22;10689;50.836;3.266;2023-03-26T08:32:38;8.60;99.90
21061;DHT22;10689;50.836;3.266;2023-03-26T08:35:04;8.50;99.90
21061;DHT22;10689;50.836;3.266;2023-03-26T08:37:30;8.50;99.90
21061;DHT22;10689;50.836;3.266;2023-03-26T08:39:56;8.50;99.90
21061;DHT22;10689;50.836;3.266;2023-03-26T08:45:13;8.40;99.90
21061;DHT22;10689;50.836;3.266;2023-03-26T09:04:12;8.30;99.90
21061;DHT22;10689;50.836;3.266;2023-03-26T09:13:32;8.50;99.90
21061;DHT22;10689;50.836;3.266;2023-03-26T09:18:21;8.60;99.90
21061;DHT22;10689;50.836;3.266;2023-03-26T09:40:19;8.90;99.90
21061;DHT22;10689;50.836;3.266;2023-03-26T09:43:25;8.80;99.90
21061;DHT22;10689;50.836;3.266;2023-03-26T09:48:47;8.80;99.90
21061;DHT22;10689;50.836;3.266;2023-03-26T09:57:00;8.90;99.90
21061;DHT22;10689;50.836;3.266;2023-03-26T09:59:43;9.00;99.90
21061;DHT22;10689;50.836;3.266;2023-03-26T10:06:12;9.00;99.90
21061;DHT22;10689;50.836;3.266;2023-03-26T10:09:09;9.10;99.90
21061;DHT22;10689;50.836;3.266;2023-03-26T10:15:03;9.20;99.90
21061;DHT22;10689;50.836;3.266;2023-03-26T10:32:00;9.30;99.90
21061;DHT22;10689;50.836;3.266;2023-03-26T10:40:13;9.30;99.90
21061;DHT22;10689;50.836;3.266;2023-03-26T10:51:57;9.30;99.90
21061;DHT22;10689;50.836;3.266;2023-03-26T10:57:08;9.40;99.90
21061;DHT22;10689;50.836;3.266;2023-03-26T10:59:36;9.40;99.90
21061;DHT22;10689;50.836;3.266;2023-03-26T11:02:36;9.50;99.90
21061;DHT22;10689;50.836;3.266;2023-03-26T11:08:00;9.80;99.90
21061;DHT22;10689;50.836;3.266;2023-03-26T11:16:04;10.00;99.90
21061;DHT22;10689;50.836;3.266;2023-03-26T11:18:51;10.00;99.90
21061;DHT22;10689;50.836;3.266;2023-03-26T11:21:43;9.90;99.90
21061;DHT22;10689;50.836;3.266;2023-03-26T11:30:06;9.70;99.90
21061;DHT22;10689;50.836;3.266;2023-03-26T11:32:45;9.60;99.90
21061;DHT22;10689;50.836;3.266;2023-03-26T11:35:39;9.50;99.90
21061;DHT22;10689;50.836;3.266;2023-03-26T11:38:33;9.40;99.90
21061;DHT22;10689;50.836;3.266;2023-03-26T11:41:26;9.40;99.90
21061;DHT22;10689;50.836;3.266;2023-03-26T11:44:44;9.50;99.90
21061;DHT22;10689;50.836;3.266;2023-03-26T11:46:45;9.50;99.90
21061;DHT22;10689;50.836;3.266;2023-03-26T11:49:15;9.50;99.90
21061;DHT22;10689;50.836;3.266;2023-03-26T11:51:43;9.60;99.90
21061;DHT22;10689;50.836;3.266;2023-03-26T11:54:12;9.60;99.90
21061;DHT22;10689;50.836;3.266;2023-03-26T11:56:51;9.60;99.90
21061;DHT22;10689;50.836;3.266;2023-03-26T12:02:42;9.80;99.90
21061;DHT22;10689;50.836;3.266;2023-03-26T12:04:45;9.80;99.90
21061;DHT22;10689;50.836;3.266;2023-03-26T12:07:29;10.00;99.90
21061;DHT22;10689;50.836;3.266;2023-03-26T12:10:00;10.10;99.90
21061;DHT22;10689;50.836;3.266;2023-03-26T12:12:30;10.30;99.90
21061;DHT22;10689;50.836;3.266;2023-03-26T12:14:57;10.30;99.90
21061;DHT22;10689;50.836;3.266;2023-03-26T12:17:34;10.30;99.90
21061;DHT22;10689;50.836;3.266;2023-03-26T12:20:01;10.30;99.90
21061;DHT22;10689;50.836;3.266;2023-03-26T12:22:47;10.30;99.90
21061;DHT22;10689;50.836;3.266;2023-03-26T12:30:29;10.40;99.90
21061;DHT22;10689;50.836;3.266;2023-03-26T12:33:00;10.40;99.90
21061;DHT22;10689;50.836;3.266;2023-03-26T12:35:29;10.40;99.90
21061;DHT22;10689;50.836;3.266;2023-03-26T12:38:14;10.40;99.90
21061;DHT22;10689;50.836;3.266;2023-03-26T12:40:41;10.60;99.90
21061;DHT22;10689;50.836;3.266;2023-03-26T12:43:28;10.60;99.90
21061;DHT22;10689;50.836;3.266;2023-03-26T12:45:55;10.60;99.90
21061;DHT22;10689;50.836;3.266;2023-03-26T12:48:23;10.60;99.90
21061;DHT22;10689;50.836;3.266;2023-03-26T12:54:01;10.50;99.90
21061;DHT22;10689;50.836;3.266;2023-03-26T12:56:42;10.20;99.90
21061;DHT22;10689;50.836;3.266;2023-03-26T13:12:40;10.00;99.90
21061;DHT22;10689;50.836;3.266;2023-03-26T13:15:19;10.00;99.90
21061;DHT22;10689;50.836;3.266;2023-03-26T13:20:30;9.80;99.90
21061;DHT22;10689;50.836;3.266;2023-03-26T13:23:23;9.80;99.90
21061;DHT22;10689;50.836;3.266;2023-03-26T13:28:50;10.10;99.90
21061;DHT22;10689;50.836;3.266;2023-03-26T13:31:31;10.10;99.90
21061;DHT22;10689;50.836;3.266;2023-03-26T13:42:06;10.30;99.90
21061;DHT22;10689;50.836;3.266;2023-03-26T13:47:45;10.30;99.90
21061;DHT22;10689;50.836;3.266;2023-03-26T13:50:26;10.20;99.90
21061;DHT22;10689;50.836;3.266;2023-03-26T13:55:27;10.20;99.90
21061;DHT22;10689;50.836;3.266;2023-03-26T14:12:39;10.00;99.90
21061;DHT22;10689;50.836;3.266;2023-03-26T14:15:43;10.10;99.90
21061;DHT22;10689;50.836;3.266;2023-03-26T14:18:32;10.10;99.90
21061;DHT22;10689;50.836;3.266;2023-03-26T14:35:27;10.50;99.90
21061;DHT22;10689;50.836;3.266;2023-03-26T14:41:08;10.50;99.90
21061;DHT22;10689;50.836;3.266;2023-03-26T15:01:12;10.30;99.90
21061;DHT22;10689;50.836;3.266;2023-03-26T15:21:25;10.20;99.90
21061;DHT22;10689;50.836;3.266;2023-03-26T15:44:07;9.20;99.90
21061;DHT22;10689;50.836;3.266;2023-03-26T15:50:05;9.30;99.90
21061;DHT22;10689;50.836;3.266;2023-03-26T15:55:51;9.30;99.90
21061;DHT22;10689;50.836;3.266;2023-03-26T16:01:18;9.20;99.90
21061;DHT22;10689;50.836;3.266;2023-03-26T16:18:24;9.20;99.90
21061;DHT22;10689;50.836;3.266;2023-03-26T16:29:20;9.10;99.90
21061;DHT22;10689;50.836;3.266;2023-03-26T16:43:17;8.60;99.90
21061;DHT22;10689;50.836;3.266;2023-03-26T16:54:31;8.20;99.90
21061;DHT22;10689;50.836;3.266;2023-03-26T17:00:19;8.30;99.90
21061;DHT22;10689;50.836;3.266;2023-03-26T17:08:26;8.40;99.90
21061;DHT22;10689;50.836;3.266;2023-03-26T17:22:45;7.90;99.90
21061;DHT22;10689;50.836;3.266;2023-03-26T17:28:21;7.90;99.90
21061;DHT22;10689;50.836;3.266;2023-03-26T17:31:04;7.90;99.90
21061;DHT22;10689;50.836;3.266;2023-03-26T17:33:38;7.90;99.90
21061;DHT22;10689;50.836;3.266;2023-03-26T17:36:38;7.90;99.90
21061;DHT22;10689;50.836;3.266;2023-03-26T17:39:19;7.80;99.90
21061;DHT22;10689;50.836;3.266;2023-03-26T17:42:00;7.80;99.90
21061;DHT22;10689;50.836;3.266;2023-03-26T17:44:56;7.90;99.90
21061;DHT22;10689;50.836;3.266;2023-03-26T17:53:11;7.90;99.90
21061;DHT22;10689;50.836;3.266;2023-03-26T17:55:42;7.80;99.90
21061;DHT22;10689;50.836;3.266;2023-03-26T17:58:48;7.70;99.90
21061;DHT22;10689;50.836;3.266;2023-03-26T18:01:38;7.50;99.90
21061;DHT22;10689;50.836;3.266;2023-03-26T18:04:14;7.50;99.90
21061;DHT22;10689;50.836;3.266;2023-03-26T18:07:15;7.30;99.90
21061;DHT22;10689;50.836;3.266;2023-03-26T18:16:21;6.90;99.90
21061;DHT22;10689;50.836;3.266;2023-03-26T18:18:56;6.90;99.90
21061;DHT22;10689;50.836;3.266;2023-03-26T18:23:58;6.80;99.90
21061;DHT22;10689;50.836;3.266;2023-03-26T18:26:48;6.90;99.90
21061;DHT22;10689;50.836;3.266;2023-03-26T18:29:27;6.90;99.90
21061;DHT22;10689;50.836;3.266;2023-03-26T18:32:18;6.80;99.90
21061;DHT22;10689;50.836;3.266;2023-03-26T18:35:15;6.80;99.90
21061;DHT22;10689;50.836;3.266;2023-03-26T18:38:17;6.70;99.90
21061;DHT22;10689;50.836;3.266;2023-03-26T18:40:52;6.90;99.90
21061;DHT22;10689;50.836;3.266;2023-03-26T18:46:38;7.00;99.90
21061;DHT22;10689;50.836;3.266;2023-03-26T18:49:21;7.00;99.90
21061;DHT22;10689;50.836;3.266;2023-03-26T18:52:35;7.10;99.90
21061;DHT22;10689;50.836;3.266;2023-03-26T18:55:11;7.10;99.90
21061;DHT22;10689;50.836;3.266;2023-03-26T19:01:08;7.10;99.90
21061;DHT22;10689;50.836;3.266;2023-03-26T19:06:51;6.80;99.90
21061;DHT22;10689;50.836;3.266;2023-03-26T19:09:19;6.70;99.90
21061;DHT22;10689;50.836;3.266;2023-03-26T19:11:48;6.70;99.90
21061;DHT22;10689;50.836;3.266;2023-03-26T19:14:36;6.70;99.90
21061;DHT22;10689;50.836;3.266;2023-03-26T19:17:10;6.70;99.90
21061;DHT22;10689;50.836;3.266;2023-03-26T19:19:46;6.70;99.90
21061;DHT22;10689;50.836;3.266;2023-03-26T19:22:32;6.60;99.90
21061;DHT22;10689;50.836;3.266;2023-03-26T19:25:00;6.50;99.90
21061;DHT22;10689;50.836;3.266;2023-03-26T19:27:27;6.60;99.90
21061;DHT22;10689;50.836;3.266;2023-03-26T19:29:54;6.60;99.90
21061;DHT22;10689;50.836;3.266;2023-03-26T19:32:28;6.50;99.90
21061;DHT22;10689;50.836;3.266;2023-03-26T19:34:58;6.50;99.90
21061;DHT22;10689;50.836;3.266;2023-03-26T19:37:28;6.50;99.90
21061;DHT22;10689;50.836;3.266;2023-03-26T19:40:26;6.50;99.90
21061;DHT22;10689;50.836;3.266;2023-03-26T19:43:02;6.50;99.90
21061;DHT22;10689;50.836;3.266;2023-03-26T19:45:34;6.50;99.90
21061;DHT22;10689;50.836;3.266;2023-03-26T19:48:06;6.50;99.90
21061;DHT22;10689;50.836;3.266;2023-03-26T19:50:40;6.40;99.90
21061;DHT22;10689;50.836;3.266;2023-03-26T19:55:37;6.50;99.90
21061;DHT22;10689;50.836;3.266;2023-03-26T19:58:03;6.50;99.90
21061;DHT22;10689;50.836;3.266;2023-03-26T20:00:30;6.50;99.90
21061;DHT22;10689;50.836;3.266;2023-03-26T20:02:58;6.40;99.90
21061;DHT22;10689;50.836;3.266;2023-03-26T20:05:28;6.40;99.90
21061;DHT22;10689;50.836;3.266;2023-03-26T20:07:56;6.40;99.90
21061;DHT22;10689;50.836;3.266;2023-03-26T20:10:23;6.50;99.90
21061;DHT22;10689;50.836;3.266;2023-03-26T20:12:49;6.50;99.90
21061;DHT22;10689;50.836;3.266;2023-03-26T20:15:23;6.40;99.90
21061;DHT22;10689;50.836;3.266;2023-03-26T20:17:52;6.40;99.90
21061;DHT22;10689;50.836;3.266;2023-03-26T20:20:23;6.40;99.90
21061;DHT22;10689;50.836;3.266;2023-03-26T20:22:58;6.50;99.90
21061;DHT22;10689;50.836;3.266;2023-03-26T20:25:32;6.60;99.90
21061;DHT22;10689;50.836;3.266;2023-03-26T20:28:01;6.70;99.90
21061;DHT22;10689;50.836;3.266;2023-03-26T20:30:37;6.60;99.90
21061;DHT22;10689;50.836;3.266;2023-03-26T20:33:11;6.50;99.90
21061;DHT22;10689;50.836;3.266;2023-03-26T20:35:59;6.50;99.90
21061;DHT22;10689;50.836;3.266;2023-03-26T20:41:33;6.40;99.90
21061;DHT22;10689;50.836;3.266;2023-03-26T20:44:02;6.30;99.90
21061;DHT22;10689;50.836;3.266;2023-03-26T20:46:54;6.30;99.90
21061;DHT22;10689;50.836;3.266;2023-03-26T20:49:21;6.40;99.90
21061;DHT22;10689;50.836;3.266;2023-03-26T20:52:38;6.40;99.90
21061;DHT22;10689;50.836;3.266;2023-03-26T20:55:19;6.40;99.90
21061;DHT22;10689;50.836;3.266;2023-03-26T20:58:13;6.30;99.90
21061;DHT22;10689;50.836;3.266;2023-03-26T21:00:59;6.20;99.90
21061;DHT22;10689;50.836;3.266;2023-03-26T21:03:26;6.10;99.90
21061;DHT22;10689;50.836;3.266;2023-03-26T21:06:04;6.30;99.90
21061;DHT22;10689;50.836;3.266;2023-03-26T21:08:53;6.30;99.90
21061;DHT22;10689;50.836;3.266;2023-03-26T21:14:35;6.40;99.90
21061;DHT22;10689;50.836;3.266;2023-03-26T21:17:43;6.30;99.90
21061;DHT22;10689;50.836;3.266;2023-03-26T21:20:10;6.20;99.90
21061;DHT22;10689;50.836;3.266;2023-03-26T21:28:46;6.20;99.90
21061;DHT22;10689;50.836;3.266;2023-03-26T21:31:25;6.30;99.90
21061;DHT22;10689;50.836;3.266;2023-03-26T21:34:05;6.10;99.90
21061;DHT22;10689;50.836;3.266;2023-03-26T21:36:33;6.10;99.90
21061;DHT22;10689;50.836;3.266;2023-03-26T21:38:59;6.20;99.90
21061;DHT22;10689;50.836;3.266;2023-03-26T21:44:13;6.20;99.90
21061;DHT22;10689;50.836;3.266;2023-03-26T21:46:42;6.30;99.90
21061;DHT22;10689;50.836;3.266;2023-03-26T21:49:09;6.30;99.90
21061;DHT22;10689;50.836;3.266;2023-03-26T21:51:35;6.30;99.90
21061;DHT22;10689;50.836;3.266;2023-03-26T21:54:31;6.40;99.90
21061;DHT22;10689;50.836;3.266;2023-03-26T22:00:06;6.50;99.90
21061;DHT22;10689;50.836;3.266;2023-03-26T22:06:14;6.60;99.90
21061;DHT22;10689;50.836;3.266;2023-03-26T22:08:44;6.70;99.90
21061;DHT22;10689;50.836;3.266;2023-03-26T22:11:16;6.70;99.90
21061;DHT22;10689;50.836;3.266;2023-03-26T22:13:42;6.70;99.90
21061;DHT22;10689;50.836;3.266;2023-03-26T22:16:09;6.60;99.90
21061;DHT22;10689;50.836;3.266;2023-03-26T22:18:41;6.50;99.90
21061;DHT22;10689;50.836;3.266;2023-03-26T22:21:24;6.50;99.90
21061;DHT22;10689;50.836;3.266;2023-03-26T22:23:51;6.30;99.90
21061;DHT22;10689;50.836;3.266;2023-03-26T22:26:19;6.30;99.90
21061;DHT22;10689;50.836;3.266;2023-03-26T22:28:54;6.30;99.90
21061;DHT22;10689;50.836;3.266;2023-03-26T22:31:24;6.30;99.90
21061;DHT22;10689;50.836;3.266;2023-03-26T22:33:53;6.30;99.90
21061;DHT22;10689;50.836;3.266;2023-03-26T22:36:45;6.20;99.90
21061;DHT22;10689;50.836;3.266;2023-03-26T22:39:34;6.30;99.90
21061;DHT22;10689;50.836;3.266;2023-03-26T22:42:02;6.40;99.90
21061;DHT22;10689;50.836;3.266;2023-03-26T22:47:39;6.40;99.90
21061;DHT22;10689;50.836;3.266;2023-03-26T22:50:19;6.30;99.90
21061;DHT22;10689;50.836;3.266;2023-03-26T22:52:50;6.30;99.90
21061;DHT22;10689;50.836;3.266;2023-03-26T22:55:16;6.30;99.90
21061;DHT22;10689;50.836;3.266;2023-03-26T22:57:42;6.30;99.90
21061;DHT22;10689;50.836;3.266;2023-03-26T23:00:11;6.30;99.90
21061;DHT22;10689;50.836;3.266;2023-03-26T23:02:51;6.40;99.90
21061;DHT22;10689;50.836;3.266;2023-03-26T23:05:19;6.30;99.90
21061;DHT22;10689;50.836;3.266;2023-03-26T23:07:46;6.40;99.90
21061;DHT22;10689;50.836;3.266;2023-03-26T23:10:16;6.40;99.90
21061;DHT22;10689;50.836;3.266;2023-03-26T23:12:53;6.30;99.90
21061;DHT22;10689;50.836;3.266;2023-03-26T23:15:19;6.20;99.90
21061;DHT22;10689;50.836;3.266;2023-03-26T23:17:58;6.20;99.90
21061;DHT22;10689;50.836;3.266;2023-03-26T23:20:31;6.30;99.90
21061;DHT22;10689;50.836;3.266;2023-03-26T23:23:12;6.30;99.90
21061;DHT22;10689;50.836;3.266;2023-03-26T23:25:43;6.50;99.90
21061;DHT22;10689;50.836;3.266;2023-03-26T23:28:09;6.50;99.90
21061;DHT22;10689;50.836;3.266;2023-03-26T23:30:35;6.50;99.90
21061;DHT22;10689;50.836;3.266;2023-03-26T23:33:15;6.60;99.90
21061;DHT22;10689;50.836;3.266;2023-03-26T23:35:40;6.60;99.90
21061;DHT22;10689;50.836;3.266;2023-03-26T23:38:11;6.40;99.90
21061;DHT22;10689;50.836;3.266;2023-03-26T23:40:56;6.60;99.90
21061;DHT22;10689;50.836;3.266;2023-03-26T23:43:23;6.70;99.90
21061;DHT22;10689;50.836;3.266;2023-03-26T23:45:51;6.80;99.90
21061;DHT22;10689;50.836;3.266;2023-03-26T23:48:21;6.80;99.90
21061;DHT22;10689;50.836;3.266;2023-03-26T23:50:49;6.80;99.90
21061;DHT22;10689;50.836;3.266;2023-03-26T23:53:16;6.70;99.90
21061;DHT22;10689;50.836;3.266;2023-03-26T23:55:50;6.60;99.90
21061;DHT22;10689;50.836;3.266;2023-03-26T23:58:17;6.60;99.90
